Strawberry, CA

6:21 AM PDT on October 02, 2014 (GMT -0700)
Columbia Airport | Change Station
CLOSE
Current Station
Airport
Location: Columbia Airport,
Elevation: 2119 ft
Nearby Weather Stations

Elev 2119 ft 38.03 °N, 120.41 °W | Updated 26 minutes ago

Clear
Clear
50 °F
Feels Like 50 °F
N
0
Wind Variable Wind from North

Today
High -- | Low -- °F
--% Chance of Precip.
Yesterday
High -- | Low -- °F
Precip. -- in
6:56 AM 6:41 PM
First Quarter, 58% visible
Pressure 30.03 in
Visibility 10.0 miles
Clouds Clear
Dew Point 43 °F
Humidity 76%
Rainfall 0.00 in
Snow Depth 0 in , 0 in , 4 in
UV 0 out of 12
Pollen 5.40 out of 12
Ozone Good
PM2.5 Good
Flu Activity Not available.
METAR KO22 021255Z AUTO 00000KT 10SM CLR 10/06 A3003 RMK AO1

More Conditions Fewer Conditions

Pressure 30.03 in
Visibility 10.0 miles
Clouds Clear
Dew Point 43 °F
Humidity 76%
Rainfall 0.00 in
Snow Depth 0 in , 0 in , 4 in
UV 0 out of 12
Pollen 5.40 out of 12
Ozone Good
PM2.5 Good
Flu Activity Not available.
METAR KO22 021255Z AUTO 00000KT 10SM CLR 10/06 A3003 RMK AO1

More Conditions Fewer Conditions

10-Day Weather Forecast

Almanac

Astronomy

Oct. 02, 2014 Rise Set
Actual Time 6:56 AM PDT 6:41 PM PDT
Civil Twilight 6:30 AM PDT 7:07 PM PDT
Nautical Twilight 5:59 AM PDT 7:38 PM PDT
Astronomical Twilight 5:28 AM PDT 8:08 PM PDT
Moon 2:47 PM PDT 12:23 AM PDT
Length of Visible Light 12h 37m
Length of Day
11h 44m
Tomorrow will be 2m 27s shorter.
First Quarter, 58% of the Moon is Illuminated
Today
First Quarter
Oct 8
Full
Oct 15
Last Quarter
Oct 23
New
Oct 30
First Quarter

Today's Extremes

State Highs State Lows

Community

WunderPhotos

Upload Photos

1,758,236 photos uploaded!

WunderBlogs® & News

By Dr. Jeff Masters
Director of Meteorology, Weather Underground
By Kari Strenfel
Meteorologist, Weather Underground
By Christopher C. Burt
Weather Historian, Weather Underground
October 2, 2014
October 2, 2014
October 2, 2014

Nearby

Air Quality

  Air Quality AQ Index Pollutant
Yesterday Good
OZONE
Current Good
OZONE
Current Good
PM2.5
Thursday Moderate
OZONE
Friday Moderate
OZONE
Saturday Moderate
OZONE

Snow Depth

Station Depth Elevation
Fallen Leaf 0 in 6300 ft
Independence Lake 0 in 8450 ft
CSS Lab 4 in 6900 ft
Independence Creek 0 in 6500 ft
Burnside Lake 1 in 8139 ft

Earthquake Activity

City Distance Mag. Time & Date
South Dos Palos, California 117 miles 3.0 11:17 AM PDT
2014-10-01
East Foothills, California 109 miles 2.6 3:34 PM PDT
2014-09-30
South Dos Palos, California 117 miles 2.7 3:08 PM PDT
2014-09-30
South Dos Palos, California 116 miles 2.5 9:18 PM PDT
2014-09-29
Minimum magnitude displayed is 2.5.

Coastal Water Temperatures

Place Temperature
No Stations Reporting

Nearby Weather Stations